sensor_id;sensor_type;location;lat;lon;timestamp;pressure;altitude;pressure_sealevel;temperature;humidity
61394;BME280;48555;50.952;-0.120;2023-05-07T00:01:11;100934.91;;;16.12;93.25
61394;BME280;48555;50.952;-0.120;2023-05-07T00:03:37;100934.75;;;16.14;93.39
61394;BME280;48555;50.952;-0.120;2023-05-07T00:06:03;100931.97;;;16.16;93.16
61394;BME280;48555;50.952;-0.120;2023-05-07T00:08:28;100929.34;;;16.16;92.92
61394;BME280;48555;50.952;-0.120;2023-05-07T00:10:53;100923.25;;;16.15;92.93
61394;BME280;48555;50.952;-0.120;2023-05-07T00:13:19;100925.31;;;16.11;92.92
61394;BME280;48555;50.952;-0.120;2023-05-07T00:15:44;100928.78;;;16.12;93.14
61394;BME280;48555;50.952;-0.120;2023-05-07T00:18:10;100933.09;;;16.13;92.95
61394;BME280;48555;50.952;-0.120;2023-05-07T00:20:35;100922.66;;;16.11;93.20
61394;BME280;48555;50.952;-0.120;2023-05-07T00:23:01;100933.09;;;16.13;93.12
61394;BME280;48555;50.952;-0.120;2023-05-07T00:25:26;100938.50;;;16.11;93.47
61394;BME280;48555;50.952;-0.120;2023-05-07T00:27:52;100941.13;;;16.11;93.53
61394;BME280;48555;50.952;-0.120;2023-05-07T00:30:17;100940.31;;;16.11;93.40
61394;BME280;48555;50.952;-0.120;2023-05-07T00:32:43;100932.66;;;16.08;93.22
61394;BME280;48555;50.952;-0.120;2023-05-07T00:35:10;100940.59;;;16.08;93.35
61394;BME280;48555;50.952;-0.120;2023-05-07T00:37:36;100939.88;;;16.06;93.30
61394;BME280;48555;50.952;-0.120;2023-05-07T00:40:01;100947.78;;;16.06;93.41
61394;BME280;48555;50.952;-0.120;2023-05-07T00:42:29;100940.88;;;16.05;93.43
61394;BME280;48555;50.952;-0.120;2023-05-07T00:44:57;100942.69;;;16.04;93.56
61394;BME280;48555;50.952;-0.120;2023-05-07T00:47:23;100936.69;;;16.02;93.58
61394;BME280;48555;50.952;-0.120;2023-05-07T00:49:49;100936.69;;;16.02;93.44
61394;BME280;48555;50.952;-0.120;2023-05-07T00:52:16;100939.22;;;16.04;93.54
61394;BME280;48555;50.952;-0.120;2023-05-07T00:54:42;100936.28;;;16.07;93.48
61394;BME280;48555;50.952;-0.120;2023-05-07T00:57:09;100930.31;;;16.05;93.22
61394;BME280;48555;50.952;-0.120;2023-05-07T00:59:36;100940.03;;;16.04;93.19
61394;BME280;48555;50.952;-0.120;2023-05-07T01:02:02;100944.22;;;16.07;93.12
61394;BME280;48555;50.952;-0.120;2023-05-07T01:04:27;100939.34;;;16.02;93.16
61394;BME280;48555;50.952;-0.120;2023-05-07T01:06:55;100937.25;;;15.96;93.24
61394;BME280;48555;50.952;-0.120;2023-05-07T01:09:22;100932.44;;;15.92;92.94
61394;BME280;48555;50.952;-0.120;2023-05-07T01:11:49;100936.84;;;15.91;92.85
61394;BME280;48555;50.952;-0.120;2023-05-07T01:14:15;100941.84;;;15.94;92.80
61394;BME280;48555;50.952;-0.120;2023-05-07T01:16:41;100941.00;;;15.94;92.68
61394;BME280;48555;50.952;-0.120;2023-05-07T01:19:08;100938.38;;;15.94;92.42
61394;BME280;48555;50.952;-0.120;2023-05-07T01:21:33;100935.06;;;15.92;92.37
61394;BME280;48555;50.952;-0.120;2023-05-07T01:24:00;100941.84;;;15.94;92.26
61394;BME280;48555;50.952;-0.120;2023-05-07T01:26:26;100935.91;;;15.92;92.05
61394;BME280;48555;50.952;-0.120;2023-05-07T01:28:51;100938.53;;;15.92;91.99
61394;BME280;48555;50.952;-0.120;2023-05-07T01:31:17;100942.00;;;15.93;91.79
61394;BME280;48555;50.952;-0.120;2023-05-07T01:33:44;100937.00;;;15.89;91.50
61394;BME280;48555;50.952;-0.120;2023-05-07T01:36:11;100933.13;;;15.84;91.84
61394;BME280;48555;50.952;-0.120;2023-05-07T01:38:39;100927.28;;;15.80;91.73
61394;BME280;48555;50.952;-0.120;2023-05-07T01:41:06;100926.88;;;15.75;91.37
61394;BME280;48555;50.952;-0.120;2023-05-07T01:43:31;100932.13;;;15.65;91.45
61394;BME280;48555;50.952;-0.120;2023-05-07T01:45:57;100931.56;;;15.62;91.45
61394;BME280;48555;50.952;-0.120;2023-05-07T01:48:24;100921.53;;;15.56;91.55
61394;BME280;48555;50.952;-0.120;2023-05-07T01:50:50;100921.69;;;15.54;91.56
61394;BME280;48555;50.952;-0.120;2023-05-07T01:53:16;100921.28;;;15.49;91.76
61394;BME280;48555;50.952;-0.120;2023-05-07T01:55:42;100922.25;;;15.48;91.56
61394;BME280;48555;50.952;-0.120;2023-05-07T01:58:07;100932.91;;;15.47;91.73
61394;BME280;48555;50.952;-0.120;2023-05-07T02:00:32;100929.88;;;15.41;91.54
61394;BME280;48555;50.952;-0.120;2023-05-07T02:02:58;100937.78;;;15.41;91.58
61394;BME280;48555;50.952;-0.120;2023-05-07T02:05:24;100940.69;;;15.38;91.81
61394;BME280;48555;50.952;-0.120;2023-05-07T02:07:49;100933.91;;;15.36;91.77
61394;BME280;48555;50.952;-0.120;2023-05-07T02:10:14;100935.00;;;15.33;91.46
61394;BME280;48555;50.952;-0.120;2023-05-07T02:12:40;100939.72;;;15.30;91.88
61394;BME280;48555;50.952;-0.120;2023-05-07T02:15:05;100939.28;;;15.25;91.80
61394;BME280;48555;50.952;-0.120;2023-05-07T02:17:31;100944.53;;;15.25;91.72
61394;BME280;48555;50.952;-0.120;2023-05-07T02:19:59;100942.31;;;15.20;91.63
61394;BME280;48555;50.952;-0.120;2023-05-07T02:22:25;100937.03;;;15.20;91.30
61394;BME280;48555;50.952;-0.120;2023-05-07T02:24:50;100931.47;;;15.13;91.06
61394;BME280;48555;50.952;-0.120;2023-05-07T02:27:16;100929.13;;;15.10;91.30
61394;BME280;48555;50.952;-0.120;2023-05-07T02:29:41;100936.47;;;15.07;91.26
61394;BME280;48555;50.952;-0.120;2023-05-07T02:32:07;100939.78;;;15.09;91.30
61394;BME280;48555;50.952;-0.120;2023-05-07T02:34:32;100930.38;;;15.06;90.91
61394;BME280;48555;50.952;-0.120;2023-05-07T02:36:57;100940.47;;;15.11;90.79
61394;BME280;48555;50.952;-0.120;2023-05-07T02:39:23;100944.47;;;15.05;90.81
61394;BME280;48555;50.952;-0.120;2023-05-07T02:41:48;100946.28;;;15.05;90.84
61394;BME280;48555;50.952;-0.120;2023-05-07T02:44:14;100944.91;;;15.01;91.09
61394;BME280;48555;50.952;-0.120;2023-05-07T02:46:39;100950.28;;;14.99;90.84
61394;BME280;48555;50.952;-0.120;2023-05-07T02:49:04;100959.28;;;14.96;90.68
61394;BME280;48555;50.952;-0.120;2023-05-07T02:51:30;100955.97;;;14.94;91.12
61394;BME280;48555;50.952;-0.120;2023-05-07T02:53:56;100956.22;;;14.91;91.13
61394;BME280;48555;50.952;-0.120;2023-05-07T02:56:21;100964.25;;;14.90;91.18
61394;BME280;48555;50.952;-0.120;2023-05-07T02:58:47;100954.81;;;14.87;91.12
61394;BME280;48555;50.952;-0.120;2023-05-07T03:01:12;100962.97;;;14.84;91.10
61394;BME280;48555;50.952;-0.120;2023-05-07T03:03:39;100952.00;;;14.79;90.93
61394;BME280;48555;50.952;-0.120;2023-05-07T03:06:05;100949.63;;;14.76;90.96
61394;BME280;48555;50.952;-0.120;2023-05-07T03:08:30;100961.13;;;14.75;91.04
61394;BME280;48555;50.952;-0.120;2023-05-07T03:10:55;100952.78;;;14.70;90.88
61394;BME280;48555;50.952;-0.120;2023-05-07T03:13:21;100951.97;;;14.69;90.99
61394;BME280;48555;50.952;-0.120;2023-05-07T03:15:46;100958.31;;;14.67;91.31
61394;BME280;48555;50.952;-0.120;2023-05-07T03:18:12;100939.03;;;14.57;91.45
61394;BME280;48555;50.952;-0.120;2023-05-07T03:20:37;100958.72;;;14.62;91.43
61394;BME280;48555;50.952;-0.120;2023-05-07T03:23:03;100955.38;;;14.60;91.60
61394;BME280;48555;50.952;-0.120;2023-05-07T03:25:28;100955.97;;;14.64;91.78
61394;BME280;48555;50.952;-0.120;2023-05-07T03:27:55;100953.22;;;14.65;91.69
61394;BME280;48555;50.952;-0.120;2023-05-07T03:30:21;100963.72;;;14.65;92.05
61394;BME280;48555;50.952;-0.120;2023-05-07T03:32:46;100955.69;;;14.67;91.78
61394;BME280;48555;50.952;-0.120;2023-05-07T03:35:12;100959.88;;;14.69;91.84
61394;BME280;48555;50.952;-0.120;2023-05-07T03:37:38;100964.03;;;14.72;91.57
61394;BME280;48555;50.952;-0.120;2023-05-07T03:40:04;100953.63;;;14.70;91.49
61394;BME280;48555;50.952;-0.120;2023-05-07T03:42:29;100946.00;;;14.67;91.65
61394;BME280;48555;50.952;-0.120;2023-05-07T03:44:55;100946.25;;;14.64;91.53
61394;BME280;48555;50.952;-0.120;2023-05-07T03:47:20;100959.03;;;14.69;91.70
61394;BME280;48555;50.952;-0.120;2023-05-07T03:49:46;100958.06;;;14.70;91.90
61394;BME280;48555;50.952;-0.120;2023-05-07T03:52:11;100957.94;;;14.71;91.62
61394;BME280;48555;50.952;-0.120;2023-05-07T03:54:36;100958.78;;;14.72;91.62
61394;BME280;48555;50.952;-0.120;2023-05-07T03:57:02;100965.00;;;14.71;91.91
61394;BME280;48555;50.952;-0.120;2023-05-07T03:59:27;100970.41;;;14.69;91.85
61394;BME280;48555;50.952;-0.120;2023-05-07T04:01:53;100969.69;;;14.67;91.96
61394;BME280;48555;50.952;-0.120;2023-05-07T04:04:18;100967.03;;;14.67;91.93
61394;BME280;48555;50.952;-0.120;2023-05-07T04:06:43;100967.03;;;14.67;91.66
61394;BME280;48555;50.952;-0.120;2023-05-07T04:09:09;100975.81;;;14.68;91.86
61394;BME280;48555;50.952;-0.120;2023-05-07T04:11:35;100974.94;;;14.67;91.77
61394;BME280;48555;50.952;-0.120;2023-05-07T04:14:01;100979.91;;;14.61;91.68
61394;BME280;48555;50.952;-0.120;2023-05-07T04:16:26;100985.88;;;14.63;92.30
61394;BME280;48555;50.952;-0.120;2023-05-07T04:18:51;100991.41;;;14.60;91.87
61394;BME280;48555;50.952;-0.120;2023-05-07T04:21:18;100996.38;;;14.53;92.16
61394;BME280;48555;50.952;-0.120;2023-05-07T04:23:43;100997.53;;;14.49;92.22
61394;BME280;48555;50.952;-0.120;2023-05-07T04:26:09;100999.34;;;14.48;92.34
61394;BME280;48555;50.952;-0.120;2023-05-07T04:28:35;101007.94;;;14.50;92.60
61394;BME280;48555;50.952;-0.120;2023-05-07T04:31:01;101003.41;;;14.52;92.31
61394;BME280;48555;50.952;-0.120;2023-05-07T04:33:27;101001.00;;;14.49;92.38
61394;BME280;48555;50.952;-0.120;2023-05-07T04:35:52;101014.38;;;14.58;92.35
61394;BME280;48555;50.952;-0.120;2023-05-07T04:38:17;101011.63;;;14.59;92.35
61394;BME280;48555;50.952;-0.120;2023-05-07T04:40:44;101018.28;;;14.63;92.46
61394;BME280;48555;50.952;-0.120;2023-05-07T04:43:09;101024.53;;;14.62;92.39
61394;BME280;48555;50.952;-0.120;2023-05-07T04:45:35;101031.56;;;14.62;92.11
61394;BME280;48555;50.952;-0.120;2023-05-07T04:48:01;101029.19;;;14.59;92.38
61394;BME280;48555;50.952;-0.120;2023-05-07T04:50:26;101019.28;;;14.51;92.52
61394;BME280;48555;50.952;-0.120;2023-05-07T04:52:52;101015.91;;;14.39;92.98
61394;BME280;48555;50.952;-0.120;2023-05-07T04:55:17;101031.69;;;14.39;92.99
61394;BME280;48555;50.952;-0.120;2023-05-07T04:57:43;101022.34;;;14.35;93.50
61394;BME280;48555;50.952;-0.120;2023-05-07T05:00:08;101028.72;;;14.32;93.40
61394;BME280;48555;50.952;-0.120;2023-05-07T05:02:34;101035.75;;;14.32;93.62
61394;BME280;48555;50.952;-0.120;2023-05-07T05:05:00;101036.63;;;14.32;93.33
61394;BME280;48555;50.952;-0.120;2023-05-07T05:07:27;101041.16;;;14.30;93.47
61394;BME280;48555;50.952;-0.120;2023-05-07T05:09:53;101036.03;;;14.29;93.58
61394;BME280;48555;50.952;-0.120;2023-05-07T05:12:18;101032.44;;;14.30;93.54
61394;BME280;48555;50.952;-0.120;2023-05-07T05:14:44;101047.25;;;14.31;93.48
61394;BME280;48555;50.952;-0.120;2023-05-07T05:17:09;101046.28;;;14.32;93.79
61394;BME280;48555;50.952;-0.120;2023-05-07T05:19:35;101045.59;;;14.30;93.41
61394;BME280;48555;50.952;-0.120;2023-05-07T05:22:00;101048.03;;;14.22;93.72
61394;BME280;48555;50.952;-0.120;2023-05-07T05:24:26;101041.03;;;14.00;94.42
61394;BME280;48555;50.952;-0.120;2023-05-07T05:26:53;101047.47;;;14.07;94.47
61394;BME280;48555;50.952;-0.120;2023-05-07T05:29:18;101054.41;;;14.08;94.13
61394;BME280;48555;50.952;-0.120;2023-05-07T05:31:44;101049.16;;;13.97;94.61
61394;BME280;48555;50.952;-0.120;2023-05-07T05:34:09;101059.66;;;14.08;94.52
61394;BME280;48555;50.952;-0.120;2023-05-07T05:36:34;101047.22;;;14.10;94.57
61394;BME280;48555;50.952;-0.120;2023-05-07T05:39:00;101045.06;;;14.15;94.63
61394;BME280;48555;50.952;-0.120;2023-05-07T05:41:25;101055.59;;;14.15;94.58
61394;BME280;48555;50.952;-0.120;2023-05-07T05:43:50;101052.72;;;14.18;94.45
61394;BME280;48555;50.952;-0.120;2023-05-07T05:46:16;101049.94;;;14.20;94.32
61394;BME280;48555;50.952;-0.120;2023-05-07T05:48:41;101051.00;;;14.17;94.40
61394;BME280;48555;50.952;-0.120;2023-05-07T05:51:06;101059.03;;;14.16;94.46
61394;BME280;48555;50.952;-0.120;2023-05-07T05:53:32;101070.13;;;14.19;94.64
61394;BME280;48555;50.952;-0.120;2023-05-07T05:55:57;101065.47;;;14.23;94.60
61394;BME280;48555;50.952;-0.120;2023-05-07T05:58:23;101078.00;;;14.30;94.43
61394;BME280;48555;50.952;-0.120;2023-05-07T06:00:48;101078.09;;;14.29;94.13
61394;BME280;48555;50.952;-0.120;2023-05-07T06:03:13;101078.09;;;14.29;94.26
61394;BME280;48555;50.952;-0.120;2023-05-07T06:05:39;101084.81;;;14.33;94.29
61394;BME280;48555;50.952;-0.120;2023-05-07T06:08:04;101071.50;;;14.35;94.34
61394;BME280;48555;50.952;-0.120;2023-05-07T06:10:29;101082.38;;;14.41;94.05
61394;BME280;48555;50.952;-0.120;2023-05-07T06:12:55;101082.38;;;14.41;94.24
61394;BME280;48555;50.952;-0.120;2023-05-07T06:15:21;101085.59;;;14.45;93.94
61394;BME280;48555;50.952;-0.120;2023-05-07T06:17:46;101081.41;;;14.42;94.23
61394;BME280;48555;50.952;-0.120;2023-05-07T06:20:11;101086.22;;;14.37;94.29
61394;BME280;48555;50.952;-0.120;2023-05-07T06:22:37;101086.72;;;14.31;94.10
61394;BME280;48555;50.952;-0.120;2023-05-07T06:25:02;101094.59;;;14.31;94.39
61394;BME280;48555;50.952;-0.120;2023-05-07T06:27:27;101092.94;;;14.30;94.68
61394;BME280;48555;50.952;-0.120;2023-05-07T06:29:53;101085.41;;;14.25;94.60
61394;BME280;48555;50.952;-0.120;2023-05-07T06:32:18;101101.19;;;14.25;94.76
61394;BME280;48555;50.952;-0.120;2023-05-07T06:34:44;101104.88;;;14.34;94.46
61394;BME280;48555;50.952;-0.120;2023-05-07T06:37:09;101108.34;;;14.35;94.39
61394;BME280;48555;50.952;-0.120;2023-05-07T06:39:35;101098.66;;;14.35;94.32
61394;BME280;48555;50.952;-0.120;2023-05-07T06:42:00;101105.59;;;14.36;94.50
61394;BME280;48555;50.952;-0.120;2023-05-07T06:44:27;101081.78;;;14.38;94.62
61394;BME280;48555;50.952;-0.120;2023-05-07T06:46:52;101106.66;;;14.45;94.62
61394;BME280;48555;50.952;-0.120;2023-05-07T06:49:17;101103.03;;;14.46;94.32
61394;BME280;48555;50.952;-0.120;2023-05-07T06:51:43;101109.84;;;14.48;94.57
61394;BME280;48555;50.952;-0.120;2023-05-07T06:54:08;101110.81;;;14.47;94.32
61394;BME280;48555;50.952;-0.120;2023-05-07T06:56:34;101105.81;;;14.12;95.08
61394;BME280;48555;50.952;-0.120;2023-05-07T06:59:00;101117.72;;;14.27;94.85
61394;BME280;48555;50.952;-0.120;2023-05-07T07:01:25;101109.31;;;14.34;94.65
61394;BME280;48555;50.952;-0.120;2023-05-07T07:03:51;101109.88;;;14.37;94.61
61394;BME280;48555;50.952;-0.120;2023-05-07T07:06:17;101111.19;;;14.43;94.46
61394;BME280;48555;50.952;-0.120;2023-05-07T07:08:42;101115.88;;;14.39;94.88
61394;BME280;48555;50.952;-0.120;2023-05-07T07:11:08;101111.19;;;14.43;94.58
61394;BME280;48555;50.952;-0.120;2023-05-07T07:13:33;101111.56;;;14.38;94.78
61394;BME280;48555;50.952;-0.120;2023-05-07T07:15:59;101113.16;;;14.29;94.67
61394;BME280;48555;50.952;-0.120;2023-05-07T07:18:25;101116.47;;;14.31;94.68
61394;BME280;48555;50.952;-0.120;2023-05-07T07:20:50;101122.81;;;14.29;95.00
61394;BME280;48555;50.952;-0.120;2023-05-07T07:23:16;101122.81;;;14.29;94.73
61394;BME280;48555;50.952;-0.120;2023-05-07T07:25:41;101131.78;;;14.26;95.34
61394;BME280;48555;50.952;-0.120;2023-05-07T07:28:06;101133.28;;;14.19;95.34
61394;BME280;48555;50.952;-0.120;2023-05-07T07:30:32;101129.06;;;14.28;95.00
61394;BME280;48555;50.952;-0.120;2023-05-07T07:32:57;101121.38;;;14.36;94.82
61394;BME280;48555;50.952;-0.120;2023-05-07T07:35:28;101129.34;;;14.46;95.04
61394;BME280;48555;50.952;-0.120;2023-05-07T07:37:53;101131.50;;;14.52;95.13
61394;BME280;48555;50.952;-0.120;2023-05-07T07:40:19;101139.88;;;14.57;94.71
61394;BME280;48555;50.952;-0.120;2023-05-07T07:42:44;101149.28;;;14.71;94.79
61394;BME280;48555;50.952;-0.120;2023-05-07T07:45:10;101143.75;;;14.74;94.32
61394;BME280;48555;50.952;-0.120;2023-05-07T07:47:35;101134.81;;;14.65;94.44
61394;BME280;48555;50.952;-0.120;2023-05-07T07:50:01;101137.50;;;14.75;94.30
61394;BME280;48555;50.952;-0.120;2023-05-07T07:52:26;101142.97;;;14.83;94.09
61394;BME280;48555;50.952;-0.120;2023-05-07T07:54:51;101145.34;;;14.86;93.89
61394;BME280;48555;50.952;-0.120;2023-05-07T07:57:17;101146.81;;;14.79;93.76
61394;BME280;48555;50.952;-0.120;2023-05-07T07:59:42;101146.69;;;14.81;93.62
61394;BME280;48555;50.952;-0.120;2023-05-07T08:02:08;101146.44;;;14.84;93.36
61394;BME280;48555;50.952;-0.120;2023-05-07T08:04:34;101140.16;;;14.75;93.19
61394;BME280;48555;50.952;-0.120;2023-05-07T08:07:00;101157.19;;;14.92;93.26
61394;BME280;48555;50.952;-0.120;2023-05-07T08:09:25;101144.91;;;14.81;93.37
61394;BME280;48555;50.952;-0.120;2023-05-07T08:11:51;101155.69;;;14.78;93.55
61394;BME280;48555;50.952;-0.120;2023-05-07T08:14:17;101163.03;;;14.95;93.40
61394;BME280;48555;50.952;-0.120;2023-05-07T08:16:42;101167.47;;;14.95;93.35
61394;BME280;48555;50.952;-0.120;2023-05-07T08:19:07;101170.88;;;15.07;93.02
61394;BME280;48555;50.952;-0.120;2023-05-07T08:21:34;101166.28;;;15.09;92.84
61394;BME280;48555;50.952;-0.120;2023-05-07T08:23:59;101178.44;;;15.21;93.06
61394;BME280;48555;50.952;-0.120;2023-05-07T08:26:25;101178.59;;;15.29;92.78
61394;BME280;48555;50.952;-0.120;2023-05-07T08:28:50;101184.06;;;15.37;92.64
61394;BME280;48555;50.952;-0.120;2023-05-07T08:31:15;101176.34;;;15.45;92.59
61394;BME280;48555;50.952;-0.120;2023-05-07T08:33:41;101187.09;;;15.54;92.74
61394;BME280;48555;50.952;-0.120;2023-05-07T08:36:06;101183.22;;;15.58;92.62
61394;BME280;48555;50.952;-0.120;2023-05-07T08:38:32;101183.03;;;15.71;92.53
61394;BME280;48555;50.952;-0.120;2023-05-07T08:40:57;101184.16;;;15.78;92.21
61394;BME280;48555;50.952;-0.120;2023-05-07T08:43:26;101186.97;;;15.86;92.03
61394;BME280;48555;50.952;-0.120;2023-05-07T08:45:54;101192.16;;;15.97;91.56
61394;BME280;48555;50.952;-0.120;2023-05-07T08:48:25;101188.81;;;16.05;91.44
61394;BME280;48555;50.952;-0.120;2023-05-07T08:50:50;101189.81;;;16.13;91.36
61394;BME280;48555;50.952;-0.120;2023-05-07T08:53:16;101194.28;;;16.13;90.16
61394;BME280;48555;50.952;-0.120;2023-05-07T08:55:42;101193.66;;;16.00;88.84
61394;BME280;48555;50.952;-0.120;2023-05-07T08:58:08;101194.53;;;16.00;88.71
61394;BME280;48555;50.952;-0.120;2023-05-07T09:00:34;101200.06;;;15.97;88.45
61394;BME280;48555;50.952;-0.120;2023-05-07T09:03:01;101202.94;;;15.94;88.21
61394;BME280;48555;50.952;-0.120;2023-05-07T09:05:26;101199.34;;;15.95;88.39
61394;BME280;48555;50.952;-0.120;2023-05-07T09:07:52;101207.03;;;16.08;88.34
61394;BME280;48555;50.952;-0.120;2023-05-07T09:10:17;101208.28;;;16.04;88.27
61394;BME280;48555;50.952;-0.120;2023-05-07T09:12:42;101209.13;;;16.14;88.45
61394;BME280;48555;50.952;-0.120;2023-05-07T09:15:08;101211.94;;;16.22;88.69
61394;BME280;48555;50.952;-0.120;2023-05-07T09:17:34;101211.38;;;16.28;88.45
61394;BME280;48555;50.952;-0.120;2023-05-07T09:20:03;101203.75;;;16.35;88.25
61394;BME280;48555;50.952;-0.120;2023-05-07T09:22:32;101206.56;;;16.43;88.05
61394;BME280;48555;50.952;-0.120;2023-05-07T09:24:58;101209.34;;;16.51;88.08
61394;BME280;48555;50.952;-0.120;2023-05-07T09:27:23;101211.31;;;16.59;88.00
61394;BME280;48555;50.952;-0.120;2023-05-07T09:29:48;101205.47;;;16.65;87.90
61394;BME280;48555;50.952;-0.120;2023-05-07T09:32:14;101216.88;;;16.75;87.93
61394;BME280;48555;50.952;-0.120;2023-05-07T09:34:41;101220.66;;;16.83;87.73
61394;BME280;48555;50.952;-0.120;2023-05-07T09:37:06;101218.28;;;16.89;87.83
61394;BME280;48555;50.952;-0.120;2023-05-07T09:39:45;101216.19;;;16.93;87.29
61394;BME280;48555;50.952;-0.120;2023-05-07T09:42:12;101217.44;;;16.98;87.40
61394;BME280;48555;50.952;-0.120;2023-05-07T09:44:38;101222.72;;;17.08;87.23
61394;BME280;48555;50.952;-0.120;2023-05-07T09:47:05;101223.03;;;17.15;87.18
61394;BME280;48555;50.952;-0.120;2023-05-07T09:49:34;101225.22;;;17.19;87.11
61394;BME280;48555;50.952;-0.120;2023-05-07T09:52:02;101235.09;;;17.27;86.72
61394;BME280;48555;50.952;-0.120;2023-05-07T09:54:27;101233.00;;;17.31;86.54
61394;BME280;48555;50.952;-0.120;2023-05-07T09:56:56;101242.31;;;17.35;86.09
61394;BME280;48555;50.952;-0.120;2023-05-07T09:59:22;101247.59;;;17.35;85.88
61394;BME280;48555;50.952;-0.120;2023-05-07T10:01:48;101245.94;;;17.34;85.41
61394;BME280;48555;50.952;-0.120;2023-05-07T10:04:14;101255.69;;;17.33;85.18
61394;BME280;48555;50.952;-0.120;2023-05-07T10:06:41;101253.03;;;17.33;85.06
61394;BME280;48555;50.952;-0.120;2023-05-07T10:09:07;101265.97;;;17.27;84.40
61394;BME280;48555;50.952;-0.120;2023-05-07T10:11:34;101257.47;;;17.23;84.29
61394;BME280;48555;50.952;-0.120;2023-05-07T10:14:01;101261.81;;;17.24;83.98
61394;BME280;48555;50.952;-0.120;2023-05-07T10:16:28;101257.34;;;17.24;84.29
61394;BME280;48555;50.952;-0.120;2023-05-07T10:18:57;101261.38;;;17.29;84.51
61394;BME280;48555;50.952;-0.120;2023-05-07T10:21:23;101265.53;;;17.31;84.31
61394;BME280;48555;50.952;-0.120;2023-05-07T10:23:50;101268.06;;;17.33;84.34
61394;BME280;48555;50.952;-0.120;2023-05-07T10:26:18;101259.00;;;17.35;84.32
61394;BME280;48555;50.952;-0.120;2023-05-07T10:28:49;101259.41;;;17.40;84.44
61394;BME280;48555;50.952;-0.120;2023-05-07T10:31:43;101260.91;;;17.53;84.29
61394;BME280;48555;50.952;-0.120;2023-05-07T10:34:16;101262.84;;;17.60;83.74
61394;BME280;48555;50.952;-0.120;2023-05-07T10:36:42;101266.31;;;17.61;83.03
61394;BME280;48555;50.952;-0.120;2023-05-07T10:39:08;101271.19;;;17.65;82.92
61394;BME280;48555;50.952;-0.120;2023-05-07T10:41:34;101280.09;;;17.74;82.63
61394;BME280;48555;50.952;-0.120;2023-05-07T10:44:00;101277.84;;;17.79;82.68
61394;BME280;48555;50.952;-0.120;2023-05-07T10:46:27;101282.44;;;17.87;82.71
61394;BME280;48555;50.952;-0.120;2023-05-07T10:51:34;101278.03;;;18.05;81.94
61394;BME280;48555;50.952;-0.120;2023-05-07T10:56:35;101282.44;;;18.24;81.42
61394;BME280;48555;50.952;-0.120;2023-05-07T11:04:21;101285.53;;;18.47;80.27
61394;BME280;48555;50.952;-0.120;2023-05-07T11:15:14;101287.34;;;18.74;77.37
61394;BME280;48555;50.952;-0.120;2023-05-07T11:17:56;101287.56;;;18.81;77.54
61394;BME280;48555;50.952;-0.120;2023-05-07T11:25:59;101292.94;;;19.07;77.81
61394;BME280;48555;50.952;-0.120;2023-05-07T11:28:27;101299.75;;;19.10;77.58
61394;BME280;48555;50.952;-0.120;2023-05-07T11:30:53;101301.13;;;19.14;77.48
61394;BME280;48555;50.952;-0.120;2023-05-07T11:33:19;101307.94;;;19.16;77.15
61394;BME280;48555;50.952;-0.120;2023-05-07T11:35:45;101314.22;;;19.15;77.06
61394;BME280;48555;50.952;-0.120;2023-05-07T11:38:12;101322.50;;;19.12;75.96
61394;BME280;48555;50.952;-0.120;2023-05-07T11:40:50;101330.97;;;18.98;75.46
61394;BME280;48555;50.952;-0.120;2023-05-07T11:43:16;101321.03;;;19.00;75.56
61394;BME280;48555;50.952;-0.120;2023-05-07T11:45:42;101323.84;;;18.98;76.06
61394;BME280;48555;50.952;-0.120;2023-05-07T11:48:08;101326.09;;;18.93;75.45
61394;BME280;48555;50.952;-0.120;2023-05-07T11:50:33;101310.19;;;18.93;75.21
61394;BME280;48555;50.952;-0.120;2023-05-07T11:52:59;101316.94;;;19.05;75.54
61394;BME280;48555;50.952;-0.120;2023-05-07T11:55:24;101323.44;;;19.11;75.46
61394;BME280;48555;50.952;-0.120;2023-05-07T11:57:51;101332.63;;;19.17;74.91
61394;BME280;48555;50.952;-0.120;2023-05-07T12:00:16;101335.44;;;19.15;74.80
61394;BME280;48555;50.952;-0.120;2023-05-07T12:02:42;101342.78;;;19.21;74.91
61394;BME280;48555;50.952;-0.120;2023-05-07T12:05:08;101326.56;;;19.24;74.48
61394;BME280;48555;50.952;-0.120;2023-05-07T12:07:34;101329.88;;;19.26;74.67
61394;BME280;48555;50.952;-0.120;2023-05-07T12:09:59;101331.47;;;19.37;73.93
61394;BME280;48555;50.952;-0.120;2023-05-07T12:12:29;101333.50;;;19.43;73.61
61394;BME280;48555;50.952;-0.120;2023-05-07T12:14:54;101334.72;;;19.49;73.14
61394;BME280;48555;50.952;-0.120;2023-05-07T12:17:20;101334.59;;;19.50;72.27
61394;BME280;48555;50.952;-0.120;2023-05-07T12:19:45;101337.06;;;19.52;72.08
61394;BME280;48555;50.952;-0.120;2023-05-07T12:22:11;101336.97;;;19.62;72.48
61394;BME280;48555;50.952;-0.120;2023-05-07T12:24:57;101333.59;;;19.51;71.06
61394;BME280;48555;50.952;-0.120;2023-05-07T12:27:22;101323.16;;;19.68;71.09
61394;BME280;48555;50.952;-0.120;2023-05-07T12:29:49;101321.63;;;19.65;70.40
61394;BME280;48555;50.952;-0.120;2023-05-07T12:32:16;101322.97;;;19.69;69.98
61394;BME280;48555;50.952;-0.120;2023-05-07T12:34:42;101329.03;;;19.80;69.67
61394;BME280;48555;50.952;-0.120;2023-05-07T12:37:07;101332.34;;;19.82;69.06
61394;BME280;48555;50.952;-0.120;2023-05-07T12:39:33;101337.59;;;19.38;67.95
61394;BME280;48555;50.952;-0.120;2023-05-07T12:41:59;101338.19;;;18.78;70.09
61394;BME280;48555;50.952;-0.120;2023-05-07T12:44:32;101335.66;;;19.22;69.75
61394;BME280;48555;50.952;-0.120;2023-05-07T12:47:01;101334.41;;;19.52;69.10
61394;BME280;48555;50.952;-0.120;2023-05-07T12:49:28;101335.47;;;19.77;68.86
61394;BME280;48555;50.952;-0.120;2023-05-07T12:51:54;101335.38;;;19.87;68.40
61394;BME280;48555;50.952;-0.120;2023-05-07T12:54:31;101343.38;;;19.95;68.54
61394;BME280;48555;50.952;-0.120;2023-05-07T12:57:09;101337.50;;;20.09;68.69
61394;BME280;48555;50.952;-0.120;2023-05-07T12:59:36;101335.53;;;20.19;68.57